Welcome to Northern Hawkes Bay. New Zealand.
PWS Header
      nz Flag



Hit Counter


W3C Valid W3C Valid logo


    Wairoa

Select any of the Stations below to visit their websites.










Historic Data from Weather Underground
Select the location of interest below. Wairoa is the default. Please have patience, this Data is slow to load in.
Northern Hawkes Bay Historical Data
Daily Summary for January 17, 2017 Units:  English    Metric   Both
« Previous Day
Next Day »
Daily Weekly Monthly Yearly Custom
  High: Low: Average:
Temperature: 82.9 °F 52.9 °F 70 °F
Dew Point: 56.7 °F 43.2 °F 50.9 °F
Humidity: 95% 27% 55%
Wind Speed: 9.2mph 0mph 3mph
Wind Gust: 15.9mph - -
Wind- - SSW
Pressure: 29.9 in 29.8 in -
Precipitation: 0 in    
Historical Graphs
 
 
Tabular Data for January 17, 2017
Time Temperature Dew Point Pressure Wind Wind Speed Wind Gust Humidity Rainfall Rate (Hourly) solar
00:02 61.5 °F 56.7 °F 29.9 in NW 2.2 mph 5.4 mph 84% 0 in 0 W/m2
00:07 61 °F 56.5 °F 29.9 in NW 2.2 mph 4.5 mph 85% 0 in 0 W/m2
00:12 60.6 °F 56.7 °F 29.9 in NW 2.2 mph 3.1 mph 87% 0 in 0 W/m2
00:17 60.4 °F 56.7 °F 29.9 in NNW 2.2 mph 3.8 mph 87% 0 in 0 W/m2
00:22 60.3 °F 56.5 °F 29.9 in NNE 1.6 mph 3.8 mph 87% 0 in 0 W/m2
00:27 60.1 °F 56.1 °F 29.9 in NE 0.7 mph 3.1 mph 87% 0 in 0 W/m2
00:32 60.1 °F 56.5 °F 29.9 in NNW 3.1 mph 4.5 mph 88% 0 in 0 W/m2
00:37 60.1 °F 56.5 °F 29.9 in NNW 3.1 mph 6.9 mph 88% 0 in 0 W/m2
00:42 59.9 °F 56.5 °F 29.9 in NNW 2.2 mph 6.9 mph 88% 0 in 0 W/m2
00:47 59.5 °F 55.9 °F 29.9 in NNW 3.1 mph 4.5 mph 88% 0 in 0 W/m2
00:52 59.4 °F 55.8 °F 29.9 in NNW 1.6 mph 4.5 mph 88% 0 in 0 W/m2
00:57 59 °F 55.6 °F 29.9 in NNW 3.1 mph 4.5 mph 88% 0 in 0 W/m2
01:02 58.6 °F 55.8 °F 29.9 in NW 2.2 mph 3.8 mph 90% 0 in 0 W/m2
01:07 58.5 °F 55.6 °F 29.9 in NW 1.6 mph 3.8 mph 90% 0 in 0 W/m2
01:12 58.1 °F 55.6 °F 29.9 in NNW 2.2 mph 3.8 mph 91% 0 in 0 W/m2
01:17 57.9 °F 55.2 °F 29.9 in North 1.6 mph 3.8 mph 91% 0 in 0 W/m2
01:22 57.7 °F 55 °F 29.9 in North 1.6 mph 3.8 mph 91% 0 in 0 W/m2
01:27 57.6 °F 55.2 °F 29.9 in NNW 2.2 mph 3.8 mph 92% 0 in 0 W/m2
01:32 57.4 °F 55 °F 29.9 in NNW 1.6 mph 3.8 mph 92% 0 in 0 W/m2
01:37 57.2 °F 54.9 °F 29.9 in NW 2.2 mph 3.8 mph 92% 0 in 0 W/m2
01:42 57.2 °F 54.9 °F 29.9 in NNW 1.6 mph 3.8 mph 92% 0 in 0 W/m2
01:47 57 °F 55 °F 29.9 in NNW 2.2 mph 3.8 mph 93% 0 in 0 W/m2
01:52 57 °F 55 °F 29.9 in NW 1.6 mph 3.8 mph 93% 0 in 0 W/m2
01:57 56.8 °F 54.7 °F 29.9 in NNW 2.2 mph 3.8 mph 92% 0 in 0 W/m2
02:02 56.8 °F 54.7 °F 29.9 in NNW 3.1 mph 3.8 mph 92% 0 in 0 W/m2
02:23 56.7 °F 54.1 °F 29.9 in NW 0.7 mph 4.5 mph 91% 0 in 0 W/m2
02:28 56.5 °F 54 °F 29.9 in NW 0.7 mph 4.5 mph 91% 0 in 0 W/m2
02:33 56.3 °F 53.8 °F 29.9 in NW 0.7 mph 3.1 mph 91% 0 in 0 W/m2
02:38 56.1 °F 53.4 °F 29.9 in NW 1.6 mph 3.1 mph 91% 0 in 0 W/m2
02:43 55.8 °F 53.2 °F 29.9 in NNW 1.6 mph 3.1 mph 91% 0 in 0 W/m2
02:48 55.6 °F 53.1 °F 29.9 in NNW 0.7 mph 3.1 mph 91% 0 in 0 W/m2
02:54 55.4 °F 52.9 °F 29.9 in NW 2.2 mph 4.5 mph 91% 0 in 0 W/m2
02:59 55.4 °F 52.9 °F 29.9 in NW 3.1 mph 4.5 mph 91% 0 in 0 W/m2
03:03 55.6 °F 53.1 °F 29.9 in NW 3.8 mph 5.4 mph 91% 0 in 0 W/m2
03:09 55.6 °F 53.1 °F 29.9 in NW 2.2 mph 5.4 mph 91% 0 in 0 W/m2
03:14 55.6 °F 52.7 °F 29.9 in NW 3.1 mph 5.4 mph 90% 0 in 0 W/m2
03:19 55.4 °F 52.5 °F 29.9 in NW 3.1 mph 5.4 mph 90% 0 in 0 W/m2
03:24 55.2 °F 52.5 °F 29.9 in NNW 3.8 mph 6 mph 91% 0 in 0 W/m2
03:29 55.4 °F 52.5 °F 29.9 in NW 3.1 mph 6 mph 90% 0 in 0 W/m2
03:34 55.4 °F 52.9 °F 29.9 in NNW 2.2 mph 6 mph 91% 0 in 0 W/m2
03:39 55.6 °F 53.1 °F 29.9 in NNW 1.6 mph 5.4 mph 91% 0 in 0 W/m2
03:44 55.6 °F 53.1 °F 29.9 in NW 1.6 mph 5.4 mph 91% 0 in 0 W/m2
03:49 55.6 °F 53.2 °F 29.9 in NW 2.2 mph 3.8 mph 92% 0 in 0 W/m2
03:54 55.6 °F 53.2 °F 29.9 in Calm   3.8 mph 92% 0 in 0 W/m2
03:59 55.4 °F 53.1 °F 29.9 in NNE 1.6 mph 3.8 mph 92% 0 in 0 W/m2
04:04 55.2 °F 52.9 °F 29.9 in South 1.6 mph 3.1 mph 92% 0 in 0 W/m2
04:09 55.2 °F 52.9 °F 29.9 in Calm   3.1 mph 92% 0 in 0 W/m2
04:14 55.2 °F 52.9 °F 29.9 in NW 2.2 mph 3.1 mph 92% 0 in 0 W/m2
04:18 55 °F 52.9 °F 29.9 in NNW 2.2 mph 3.8 mph 92% 0 in 0 W/m2
04:24 55 °F 52.9 °F 29.9 in NNW 2.2 mph 4.5 mph 92% 0 in 0 W/m2
04:28 54.9 °F 52.5 °F 29.9 in NW 1.6 mph 4.5 mph 92% 0 in 0 W/m2
04:34 54.9 °F 52.5 °F 29.9 in NW 1.6 mph 4.5 mph 92% 0 in 0 W/m2
04:39 54.9 °F 52.5 °F 29.9 in NW 3.1 mph 4.5 mph 92% 0 in 0 W/m2
04:44 54.7 °F 52.3 °F 29.9 in NNW 3.1 mph 5.4 mph 92% 0 in 0 W/m2
04:49 54.5 °F 52.2 °F 29.9 in NNW 3.1 mph 5.4 mph 92% 0 in 0 W/m2
04:54 54.3 °F 52.2 °F 29.9 in NNW 3.1 mph 5.4 mph 92% 0 in 0 W/m2
05:57 52.9 °F 51.4 °F 29.9 in NW 3.1 mph 4.5 mph 95% 0 in 0 W/m2
05:58 52.9 °F 51.4 °F 29.9 in NW 2.2 mph 4.5 mph 95% 0 in 1 W/m2
07:07 56.7 °F 52.5 °F 29.9 in NNW 4.5 mph 6.9 mph 86% 0 in 88 W/m2
07:15 57.6 °F 52.9 °F 29.9 in NNW 3.8 mph 7.6 mph 84% 0 in 99 W/m2
07:20 58.3 °F 52.5 °F 29.9 in NNW 3.1 mph 8.3 mph 81% 0 in 117 W/m2
10:30 72.1 °F 48.9 °F 29.9 in South 3.1 mph 9.8 mph 44% 0 in 774 W/m2
10:31 72.5 °F 50 °F 29.9 in South 3.8 mph 9.8 mph 45% 0 in 783 W/m2
10:32 72.7 °F 50.2 °F 29.9 in South 3.8 mph 9.8 mph 45% 0 in 790 W/m2
10:36 72.7 °F 49.5 °F 29.9 in South 3.1 mph 9.2 mph 44% 0 in 802 W/m2
10:37 72.5 °F 50 °F 29.9 in South 6 mph 9.2 mph 45% 0 in 805 W/m2
10:39 72.3 °F 48.6 °F 29.9 in South 3.1 mph 9.2 mph 43% 0 in 805 W/m2
10:40 72.5 °F 49.5 °F 29.9 in South 4.5 mph 9.2 mph 44% 0 in 812 W/m2
10:45 72.1 °F 50.7 °F 29.9 in South 6.9 mph 9.2 mph 47% 0 in 823 W/m2
10:55 71.8 °F 48 °F 29.9 in South 3.1 mph 9.2 mph 43% 0 in 848 W/m2
11:00 72.3 °F 49.8 °F 29.9 in South 5.4 mph 9.2 mph 45% 0 in 862 W/m2
11:05 72.7 °F 50.7 °F 29.9 in South 6 mph 9.2 mph 46% 0 in 872 W/m2
11:10 71.8 °F 51.1 °F 29.9 in South 2.2 mph 9.8 mph 48% 0 in 878 W/m2
11:15 71.4 °F 52.9 °F 29.9 in South 5.4 mph 10.7 mph 52% 0 in 883 W/m2
11:20 72.1 °F 53.6 °F 29.9 in SSW 5.4 mph 10.7 mph 52% 0 in 895 W/m2
11:25 72.7 °F 53.4 °F 29.9 in SSE 4.5 mph 9.8 mph 51% 0 in 907 W/m2
11:30 72.1 °F 53.6 °F 29.9 in SSE 3.8 mph 9.8 mph 52% 0 in 911 W/m2
11:35 72.7 °F 54.7 °F 29.9 in South 4.5 mph 9.2 mph 53% 0 in 919 W/m2
11:40 73.2 °F 54 °F 29.9 in South 2.2 mph 9.2 mph 51% 0 in 932 W/m2
11:45 73.8 °F 52.9 °F 29.9 in South 3.8 mph 7.6 mph 48% 0 in 941 W/m2
11:50 73.8 °F 54 °F 29.9 in South 3.1 mph 7.6 mph 50% 0 in 943 W/m2
11:55 73.8 °F 54 °F 29.9 in South 6 mph 9.2 mph 50% 0 in 948 W/m2
12:00 73.6 °F 54.9 °F 29.9 in SSE 2.2 mph 9.2 mph 52% 0 in 950 W/m2
12:05 74.3 °F 54.5 °F 29.9 in SSE 4.5 mph 9.2 mph 50% 0 in 961 W/m2
12:11 74.1 °F 53.8 °F 29.9 in SSE 3.8 mph 8.3 mph 49% 0 in 966 W/m2
12:15 73.8 °F 51.6 °F 29.9 in South 6 mph 10.7 mph 46% 0 in 966 W/m2
12:20 73.4 °F 52 °F 29.9 in SSW 6 mph 10.7 mph 47% 0 in 966 W/m2
12:26 73.4 °F 52 °F 29.9 in South 6 mph 10.7 mph 47% 0 in 963 W/m2
12:31 73.8 °F 51.6 °F 29.9 in South 6 mph 10.7 mph 46% 0 in 920 W/m2
12:36 74.3 °F 53.4 °F 29.9 in South 6 mph 10.7 mph 48% 0 in 938 W/m2
12:41 73.4 °F 53.1 °F 29.9 in SSE 3.1 mph 11.4 mph 49% 0 in 968 W/m2
12:46 74.5 °F 53.4 °F 29.9 in South 5.4 mph 11.4 mph 48% 0 in 966 W/m2
12:51 75 °F 52.9 °F 29.9 in South 3.8 mph 9.2 mph 46% 0 in 965 W/m2
13:10 75.7 °F 48.4 °F 29.9 in ESE 0.7 mph 8.3 mph 38% 0 in 970 W/m2
13:28 76.8 °F 49.3 °F 29.9 in SE 2.2 mph 7.6 mph 38% 0 in 962 W/m2
13:34 77.7 °F 47.1 °F 29.9 in SSE 5.4 mph 8.3 mph 34% 0 in 971 W/m2
13:40 77.5 °F 46.9 °F 29.9 in SSE 2.2 mph 8.3 mph 34% 0 in 977 W/m2
13:45 77.9 °F 47.3 °F 29.9 in SE 3.8 mph 8.3 mph 34% 0 in 667 W/m2
13:50 77.4 °F 46.8 °F 29.9 in SSE 5.4 mph 8.3 mph 34% 0 in 904 W/m2
13:55 77.5 °F 46.2 °F 29.9 in SE 3.1 mph 9.8 mph 33% 0 in 948 W/m2
14:00 78.1 °F 44.2 °F 29.9 in SE 3.1 mph 9.8 mph 30% 0 in 713 W/m2
14:05 78.6 °F 45.5 °F 29.9 in SSE 3.1 mph 6.9 mph 31% 0 in 943 W/m2
14:10 79.7 °F 43.9 °F 29.9 in SE 3.8 mph 6.9 mph 28% 0 in 951 W/m2
14:15 79.9 °F 44.8 °F 29.9 in ESE 3.8 mph 8.3 mph 29% 0 in 958 W/m2
14:20 79.2 °F 46.8 °F 29.9 in SE 4.5 mph 9.2 mph 32% 0 in 945 W/m2
14:25 78.6 °F 47.1 °F 29.9 in SSE 3.1 mph 9.2 mph 33% 0 in 945 W/m2
14:30 79.5 °F 47.1 °F 29.9 in SSE 3.1 mph 8.3 mph 32% 0 in 955 W/m2
14:35 79.7 °F 46.4 °F 29.9 in SSE 6.9 mph 10.7 mph 31% 0 in 948 W/m2
14:40 79 °F 48.4 °F 29.9 in SSE 4.5 mph 10.7 mph 34% 0 in 956 W/m2
14:57 78.8 °F 48.9 °F 29.9 in SSE 2.2 mph 12.1 mph 35% 0 in 646 W/m2
15:02 77.7 °F 46.4 °F 29.9 in SSE 1.6 mph 11.4 mph 33% 0 in 462 W/m2
15:07 77.4 °F 46.8 °F 29.9 in SSE 6.9 mph 9.8 mph 34% 0 in 767 W/m2
15:12 77.5 °F 49.3 °F 29.9 in SSE 3.1 mph 11.4 mph 37% 0 in 753 W/m2
15:17 78.6 °F 50.2 °F 29.9 in SE 2.2 mph 11.4 mph 37% 0 in 577 W/m2
15:22 78.8 °F 45.7 °F 29.9 in SE 2.2 mph 8.3 mph 31% 0 in 421 W/m2
15:27 78.8 °F 48 °F 29.9 in ESE 4.5 mph 7.6 mph 34% 0 in 388 W/m2
15:28 78.6 °F 47.8 °F 29.9 in SE 3.8 mph 7.6 mph 34% 0 in 479 W/m2
15:33 79 °F 48.4 °F 29.9 in SE 6 mph 10.7 mph 34% 0 in 835 W/m2
15:38 78.4 °F 46.9 °F 29.9 in SE 6 mph 10.7 mph 33% 0 in 792 W/m2
15:43 78.8 °F 47.3 °F 29.9 in SSE 4.5 mph 10.7 mph 33% 0 in 725 W/m2
15:48 78.8 °F 47.3 °F 29.9 in SSE 6.9 mph 9.2 mph 33% 0 in 755 W/m2
15:53 77.9 °F 50.4 °F 29.9 in SSE 4.5 mph 13 mph 38% 0 in 737 W/m2
15:58 77.5 °F 48.6 °F 29.9 in SSE 6.9 mph 13 mph 36% 0 in 672 W/m2
16:03 77.7 °F 50.7 °F 29.9 in SSE 4.5 mph 13 mph 39% 0 in 727 W/m2
16:08 77.2 °F 47.5 °F 29.9 in SSE 9.2 mph 15.9 mph 35% 0 in 389 W/m2
16:13 75.7 °F 52.3 °F 29.9 in SSE 6.9 mph 15.9 mph 44% 0 in 688 W/m2
16:18 77.4 °F 53.2 °F 29.9 in SE 7.6 mph 15.2 mph 43% 0 in 668 W/m2
16:23 77 °F 52.9 °F 29.9 in SE 5.4 mph 13.6 mph 43% 0 in 646 W/m2
16:28 77.4 °F 53.8 °F 29.9 in SE 6.9 mph 13.6 mph 44% 0 in 630 W/m2
16:33 77.4 °F 55 °F 29.9 in SE 4.5 mph 11.4 mph 46% 0 in 620 W/m2
16:39 78.3 °F 54 °F 29.8 in SE 3.1 mph 10.7 mph 43% 0 in 603 W/m2
16:45 78.8 °F 51.8 °F 29.8 in ESE 4.5 mph 12.1 mph 39% 0 in 587 W/m2
16:50 78.8 °F 51.1 °F 29.8 in ESE 5.4 mph 12.1 mph 38% 0 in 572 W/m2
16:55 80.6 °F 52 °F 29.8 in East 4.5 mph 11.4 mph 37% 0 in 561 W/m2
17:00 80.4 °F 52.5 °F 29.8 in ESE 6.9 mph 12.1 mph 38% 0 in 554 W/m2
17:05 80.6 °F 53.4 °F 29.8 in SE 5.4 mph 12.1 mph 39% 0 in 538 W/m2
17:10 80.4 °F 55.2 °F 29.8 in SE 6 mph 11.4 mph 42% 0 in 522 W/m2
17:15 81.3 °F 52 °F 29.8 in SE 3.8 mph 11.4 mph 36% 0 in 509 W/m2
17:25 81.3 °F 50.4 °F 29.8 in SE 4.5 mph 10.7 mph 34% 0 in 484 W/m2
17:30 81 °F 50 °F 29.8 in SE 5.4 mph 10.7 mph 34% 0 in 470 W/m2
17:40 81 °F 51.4 °F 29.8 in ESE 4.5 mph 10.7 mph 36% 0 in 388 W/m2
17:45 80.6 °F 52.7 °F 29.8 in ESE 7.6 mph 9.2 mph 38% 0 in 420 W/m2
17:50 80.8 °F 52.9 °F 29.8 in ESE 2.2 mph 9.2 mph 38% 0 in 401 W/m2
17:55 82 °F 54.7 °F 29.8 in SE 3.1 mph 9.2 mph 39% 0 in 388 W/m2
18:00 81.9 °F 55.9 °F 29.8 in SSE 3.1 mph 8.3 mph 41% 0 in 366 W/m2
18:06 81.5 °F 55.6 °F 29.8 in SSE 5.4 mph 8.3 mph 41% 0 in 358 W/m2
18:11 82 °F 52.5 °F 29.8 in SE 3.1 mph 8.3 mph 36% 0 in 337 W/m2
18:16 82.8 °F 54.7 °F 29.8 in SE 5.4 mph 7.6 mph 38% 0 in 326 W/m2
18:21 82.2 °F 53.4 °F 29.8 in SE 5.4 mph 8.3 mph 37% 0 in 311 W/m2
18:26 82 °F 52.5 °F 29.8 in SE 3.1 mph 8.3 mph 36% 0 in 290 W/m2
18:31 81.9 °F 51.6 °F 29.8 in SE 3.1 mph 9.2 mph 35% 0 in 265 W/m2
18:36 81.7 °F 51.4 °F 29.8 in SE 3.8 mph 9.8 mph 35% 0 in 269 W/m2
18:41 81.7 °F 49.8 °F 29.8 in ESE 4.5 mph 9.8 mph 33% 0 in 254 W/m2
18:46 81.3 °F 49.5 °F 29.8 in ESE 2.2 mph 6.9 mph 33% 0 in 241 W/m2
18:51 80.8 °F 48.2 °F 29.8 in East 3.8 mph 6.9 mph 32% 0 in 227 W/m2
18:56 80.4 °F 49.5 °F 29.8 in East 3.8 mph 7.6 mph 34% 0 in 216 W/m2
19:01 79.5 °F 50.4 °F 29.8 in East 3.1 mph 7.6 mph 36% 0 in 148 W/m2
19:06 79.3 °F 50.7 °F 29.8 in East 1.6 mph 6 mph 37% 0 in 182 W/m2
19:11 79.2 °F 49.8 °F 29.8 in ESE 2.2 mph 6 mph 36% 0 in 60 W/m2
19:16 78.4 °F 50 °F 29.8 in ESE 1.6 mph 6 mph 37% 0 in 69 W/m2
19:21 80.1 °F 50 °F 29.8 in ESE 2.2 mph 6 mph 35% 0 in 159 W/m2
19:26 81.5 °F 48.7 °F 29.8 in ESE 2.2 mph 5.4 mph 32% 0 in 148 W/m2
19:31 81.7 °F 45.3 °F 29.8 in SE 0.7 mph 5.4 mph 28% 0 in 93 W/m2
19:36 82.4 °F 51.3 °F 29.8 in SSE 1.6 mph 3.8 mph 34% 0 in 109 W/m2
19:41 81.5 °F 44.2 °F 29.8 in Calm   5.4 mph 27% 0 in 113 W/m2
19:46 82.9 °F 52.5 °F 29.8 in East 0.7 mph 5.4 mph 35% 0 in 104 W/m2
19:51 82.9 °F 50.2 °F 29.8 in SE 0.7 mph 3.8 mph 32% 0 in 89 W/m2
19:56 81.3 °F 46.9 °F 29.8 in East 0.7 mph 3.8 mph 30% 0 in 52 W/m2
20:01 79.5 °F 47.8 °F 29.8 in East 2.2 mph 3.8 mph 33% 0 in 23 W/m2
20:06 77.7 °F 47.8 °F 29.8 in ENE 3.1 mph 6 mph 35% 0 in 17 W/m2
20:10 77.2 °F 48.2 °F 29.8 in ENE 2.2 mph 6 mph 36% 0 in 18 W/m2
20:15 76.5 °F 49.6 °F 29.8 in ENE 2.2 mph 6 mph 39% 0 in 13 W/m2
20:20 75.6 °F 50.2 °F 29.8 in ENE 2.2 mph 4.5 mph 41% 0 in 10 W/m2
20:25 74.8 °F 50.2 °F 29.8 in ENE 2.2 mph 4.5 mph 42% 0 in 7 W/m2
20:30 74.3 °F 48.4 °F 29.8 in NE 3.1 mph 5.4 mph 40% 0 in 5 W/m2
20:35 74.1 °F 47.7 °F 29.8 in NE 2.2 mph 6 mph 39% 0 in 4 W/m2
20:40 73.6 °F 47.1 °F 29.8 in NE 2.2 mph 6.9 mph 39% 0 in 2 W/m2
20:45 73.4 °F 46.2 °F 29.8 in NE 1.6 mph 6.9 mph 38% 0 in 0 W/m2
20:50 73 °F 46 °F 29.8 in ENE 3.1 mph 6.9 mph 38% 0 in 0 W/m2
20:55 72.7 °F 44.2 °F 29.8 in NE 1.6 mph 6.9 mph 36% 0 in 0 W/m2
21:00 72.3 °F 43.2 °F 29.8 in NE 1.6 mph 6.9 mph 35% 0 in 0 W/m2
21:05 72 °F 43.5 °F 29.8 in NE 1.6 mph 5.4 mph 36% 0 in 0 W/m2
21:10 71.8 °F 43.3 °F 29.8 in ENE 2.2 mph 5.4 mph 36% 0 in 0 W/m2
21:15 71.6 °F 44.1 °F 29.8 in NE 1.6 mph 4.5 mph 37% 0 in 0 W/m2
21:20 71.4 °F 45.9 °F 29.9 in Calm   4.5 mph 40% 0 in 0 W/m2
21:25 70.9 °F 46 °F 29.8 in Calm   3.1 mph 41% 0 in 0 W/m2
21:30 70.3 °F 46.2 °F 29.8 in NE 1.6 mph 3.1 mph 42% 0 in 0 W/m2
21:35 70.2 °F 46 °F 29.9 in NNE 3.1 mph 5.4 mph 42% 0 in 0 W/m2
21:40 70.3 °F 45.5 °F 29.8 in NNE 0.7 mph 5.4 mph 41% 0 in 0 W/m2
21:45 70.2 °F 46 °F 29.8 in NNE 1.6 mph 4.5 mph 42% 0 in 0 W/m2
21:50 70.2 °F 46 °F 29.8 in NNE 0.7 mph 4.5 mph 42% 0 in 0 W/m2
21:55 69.8 °F 45.7 °F 29.8 in NNE 1.6 mph 4.5 mph 42% 0 in 0 W/m2
22:00 69.8 °F 46.2 °F 29.8 in NNE 1.6 mph 3.8 mph 43% 0 in 0 W/m2
22:05 69.4 °F 46.6 °F 29.8 in North 0.7 mph 3.8 mph 44% 0 in 0 W/m2
22:10 68.9 °F 46 °F 29.8 in Calm   2.2 mph 44% 0 in 0 W/m2
22:15 68.5 °F 46.4 °F 29.8 in Calm   1.6 mph 45% 0 in 0 W/m2
22:20 68.2 °F 46.6 °F 29.8 in Calm   0.7 mph 46% 0 in 0 W/m2
22:25 67.8 °F 48 °F 29.8 in Calm   0.7 mph 49% 0 in 0 W/m2
22:30 67.3 °F 48 °F 29.8 in Calm     50% 0 in 0 W/m2
22:35 66.9 °F 48.2 °F 29.8 in NNW 0.7 mph 2.2 mph 51% 0 in 0 W/m2
22:41 66.6 °F 48.4 °F 29.8 in NW 1.6 mph 2.2 mph 52% 0 in 0 W/m2
22:46 66.2 °F 48.6 °F 29.8 in NNW 0.7 mph 2.2 mph 53% 0 in 0 W/m2
22:51 66 °F 49.5 °F 29.8 in Calm   2.2 mph 55% 0 in 0 W/m2
22:56 66 °F 49.5 °F 29.8 in Calm   2.2 mph 55% 0 in 0 W/m2
23:01 65.7 °F 49.1 °F 29.8 in NNW 1.6 mph 2.2 mph 55% 0 in 0 W/m2
23:06 65.3 °F 49.6 °F 29.8 in NNW 2.2 mph 3.1 mph 57% 0 in 0 W/m2
23:11 65.3 °F 50.2 °F 29.8 in NNW 2.2 mph 3.8 mph 58% 0 in 0 W/m2
23:16 65.5 °F 50.7 °F 29.8 in NNW 3.1 mph 4.5 mph 59% 0 in 0 W/m2
23:21 65.5 °F 50.7 °F 29.8 in NW 3.1 mph 4.5 mph 59% 0 in 0 W/m2
23:26 64.9 °F 51.3 °F 29.8 in NW 3.8 mph 5.4 mph 61% 0 in 0 W/m2
23:31 64.8 °F 52 °F 29.8 in NNW 4.5 mph 6.9 mph 63% 0 in 0 W/m2
23:36 64.9 °F 52.5 °F 29.8 in NNW 3.1 mph 6.9 mph 64% 0 in 0 W/m2
23:41 64.9 °F 52.9 °F 29.8 in NNW 3.8 mph 6.9 mph 65% 0 in 0 W/m2
23:46 64.6 °F 53.1 °F 29.8 in NNW 3.8 mph 6.9 mph 66% 0 in 0 W/m2
23:51 64.6 °F 53.1 °F 29.8 in NNW 4.5 mph 7.6 mph 66% 0 in 0 W/m2
23:56 64.6 °F 53.1 °F 29.8 in NNW 4.5 mph 7.6 mph 66% 0 in 0 W/m2
Northern Hawkes Bay. New Zealand Historic Data
Compliments of Weather Underground - 2 mb